ケープタウン の空港の天気 - METARとTAF

ケープタウン国際空港 ( FACT / CPT ) - 南アフリカ ケープタウン
飛行場実況気象(Metar)
観測時間07/20 13:00 SAST (07/20 11:00 UTC)
風向・風速南 7m/s
視程10km以上
天気現象
少しの雲 雲底高度 1070m
気温13℃
湿度54%
気圧1030hPa
METARFACT 201100Z 17013KT 9999 FEW035 13/04 Q1030 NOSIG
過去の天気等 Google飛行場航空写真 Wunderground天気予報

過去48時間のMETAR

飛行場予報(TAF)
発表時間: 7/20 12:00 SAST (7/20 10:00 UTC)
予報対象時間: 20日14時 SAST ~ 21日20時 SAST
風向・風速南南東 6m/s
視程10km以上
少しの雲 雲底高度 1070m
20日21時 SAST から
風向・風速不定 1m/s
視程10km以上
なし
21日2時 SAST ~ 21日9時 SAST に 確率 30% で一時的に
視程1500m
天気現象地霧
なし
21日12時 SAST ~ 21日14時 SAST に徐々に
風向・風速北 4m/s
TAF FACT 201000Z 2012/2118 15012KT 9999 FEW035 TX19/2112Z TN03/2106Z
FM201900 VRB02KT CAVOK
PROB30 TEMPO 2100/2107 1500 MIFG NSC
BECMG 2110/2112 01008KT